Flight Briefing for CPX951

Departure Arrival
Washington Dulles International Airport (KIAD)
Click to view FAA NOTAMS
Joint Base McGuire Dix Lakehurst (KWRI)
Click to view FAA NOTAMS
Departure Time Arrival Time
N/A N/A
Aircraft Distance
B757-200SF 151nm
Departure METAR Arrival METAR
KIAD 181552Z VRB03KT 10SM FEW038 BKN080 BKN220 07/M04 A3028 RMK AO2 SLP256 T00721044 KWRI 181556Z AUTO 00000KT 10SM FEW085 06/M12 A3028 RMK AO2 SLP255 T00641117 $
Suggested Route
MXE


View recent IFR Routes data
Notes
EMPTY | NON-REVENUE REPOSITIONING LEG

Charts and Procedures

Charts for KIAD
No chart available
Charts for KWRI
No chart available

Windy.com Weather Map